createdAt,value
2023-01-15T00:02:39.022Z,967.53
2023-01-15T00:08:10.507Z,967.35
2023-01-15T00:13:42.399Z,967.28
2023-01-15T00:19:18.255Z,967.26
2023-01-15T00:24:50.223Z,967.3
2023-01-15T00:30:21.716Z,967.34
2023-01-15T00:35:53.714Z,967.11
2023-01-15T00:41:25.263Z,967.03
2023-01-15T00:46:56.898Z,967.28
2023-01-15T00:52:28.612Z,967.53
2023-01-15T00:58:00.459Z,967.31
2023-01-15T01:03:32.239Z,967.38
2023-01-15T01:09:03.828Z,967.46
2023-01-15T01:14:35.548Z,967.25
2023-01-15T01:20:11.894Z,967.22
2023-01-15T01:25:43.392Z,967.33
2023-01-15T01:31:15.424Z,967.46
2023-01-15T01:36:46.951Z,967.53
2023-01-15T01:42:18.640Z,967.27
2023-01-15T01:47:50.518Z,967.43
2023-01-15T01:53:22.117Z,967.23
2023-01-15T01:58:53.975Z,967.21
2023-01-15T02:04:31.443Z,967.16
2023-01-15T02:09:57.460Z,967.25
2023-01-15T02:15:29.007Z,967.19
2023-01-15T02:21:05.286Z,967.17
2023-01-15T02:26:36.920Z,966.88
2023-01-15T02:32:08.645Z,966.96
2023-01-15T02:37:40.259Z,966.88
2023-01-15T02:43:11.895Z,967.05
2023-01-15T02:48:43.757Z,967.13
2023-01-15T02:54:15.526Z,966.95
2023-01-15T02:59:47.349Z,967.08
2023-01-15T03:05:18.971Z,967.24
2023-01-15T03:10:50.902Z,967.14
2023-01-15T03:16:22.682Z,966.85
2023-01-15T03:21:59.273Z,966.75
2023-01-15T03:27:30.134Z,966.84
2023-01-15T03:33:01.881Z,966.84
2023-01-15T03:38:33.793Z,967.07
2023-01-15T03:44:05.474Z,966.93
2023-01-15T03:49:37.261Z,967.18
2023-01-15T03:55:08.813Z,966.64
2023-01-15T04:00:41.568Z,966.67
2023-01-15T04:06:12.312Z,966.66
2023-01-15T04:11:44.162Z,966.61
2023-01-15T04:17:16.064Z,966.59
2023-01-15T04:22:52.040Z,966.61
2023-01-15T04:28:24.028Z,966.28
2023-01-15T04:33:55.927Z,966.65
2023-01-15T04:39:27.598Z,966.59
2023-01-15T04:44:59.228Z,966.44
2023-01-15T04:50:30.639Z,966.25
2023-01-15T04:56:02.257Z,966.44
2023-01-15T05:01:34.230Z,966.11
2023-01-15T05:07:05.640Z,966.65
2023-01-15T05:12:37.284Z,964.53
2023-01-15T05:18:08.983Z,963.7
2023-01-15T05:23:47.559Z,963.93
2023-01-15T05:29:19.179Z,963.27
2023-01-15T05:34:50.539Z,963.65
2023-01-15T05:40:22.211Z,963.62
2023-01-15T05:45:54.015Z,964.17
2023-01-15T05:51:25.652Z,963.84
2023-01-15T05:56:57.350Z,963.8
2023-01-15T06:02:29.090Z,963.11
2023-01-15T06:08:02.158Z,963.15
2023-01-15T06:13:32.705Z,963.9
2023-01-15T06:19:04.313Z,963.69
2023-01-15T06:24:40.558Z,964.12
2023-01-15T06:30:12.239Z,963.91
2023-01-15T06:35:43.931Z,963.74
2023-01-15T06:41:15.687Z,963.92
2023-01-15T06:46:47.453Z,964.0
2023-01-15T06:52:19.315Z,963.61
2023-01-15T06:57:50.895Z,963.36
2023-01-15T07:03:22.512Z,964.01
2023-01-15T07:08:54.439Z,963.38
2023-01-15T07:14:25.991Z,963.75
2023-01-15T07:19:57.696Z,964.05
2023-01-15T07:25:33.960Z,964.16
2023-01-15T07:31:05.662Z,964.16
2023-01-15T07:36:37.501Z,964.27
2023-01-15T07:42:09.016Z,964.38
2023-01-15T07:47:40.705Z,964.67
2023-01-15T07:53:12.452Z,964.56
2023-01-15T07:58:44.124Z,964.43
2023-01-15T08:04:15.967Z,965.0
2023-01-15T08:09:47.560Z,964.78
2023-01-15T08:15:19.268Z,964.91
2023-01-15T08:20:51.169Z,964.63
2023-01-15T08:26:27.846Z,965.14
2023-01-15T08:31:58.975Z,965.0
2023-01-15T08:37:30.763Z,965.32
2023-01-15T08:43:02.371Z,965.51
2023-01-15T08:48:33.995Z,965.34
2023-01-15T08:54:05.943Z,965.67
2023-01-15T08:59:37.720Z,965.43
2023-01-15T09:05:09.487Z,965.62
2023-01-15T09:10:41.151Z,965.79
2023-01-15T09:16:13.350Z,966.2
2023-01-15T09:21:44.617Z,966.05
2023-01-15T09:27:22.762Z,966.51
2023-01-15T09:32:54.338Z,966.83
2023-01-15T09:38:26.070Z,967.21
2023-01-15T09:43:58.219Z,967.91
2023-01-15T09:49:29.533Z,966.81
2023-01-15T09:55:01.480Z,967.03
2023-01-15T10:00:33.029Z,966.94
2023-01-15T10:06:04.984Z,966.81
2023-01-15T10:11:36.685Z,967.38
2023-01-15T10:17:08.017Z,967.53
2023-01-15T10:22:40.492Z,967.88
2023-01-15T10:28:18.740Z,966.8
2023-01-15T10:33:47.778Z,966.85
2023-01-15T10:39:21.956Z,966.44
2023-01-15T10:44:51.662Z,966.35
2023-01-15T10:50:22.961Z,966.4
2023-01-15T10:55:54.638Z,966.21
2023-01-15T11:01:27.349Z,966.27
2023-01-15T11:06:58.128Z,966.5
2023-01-15T11:12:29.801Z,966.05
2023-01-15T11:18:01.418Z,965.81
2023-01-15T11:23:33.248Z,966.2
2023-01-15T11:29:11.527Z,966.64
2023-01-15T11:34:43.379Z,966.12
2023-01-15T11:40:15.913Z,966.73
2023-01-15T11:45:46.917Z,966.41
2023-01-15T11:51:18.488Z,966.31
2023-01-15T11:56:50.117Z,966.78
2023-01-15T12:02:21.824Z,966.94
2023-01-15T12:07:53.601Z,966.88
2023-01-15T12:13:25.133Z,966.89
2023-01-15T12:18:57.081Z,966.98
2023-01-15T12:24:28.756Z,967.46
2023-01-15T12:30:05.028Z,967.31
2023-01-15T12:35:36.896Z,967.48
2023-01-15T12:41:08.253Z,968.03
2023-01-15T12:46:39.981Z,968.09
2023-01-15T12:52:11.537Z,968.6
2023-01-15T12:57:43.253Z,969.01
2023-01-15T13:03:15.106Z,969.43
2023-01-15T13:08:46.843Z,969.45
2023-01-15T13:14:18.463Z,969.86
2023-01-15T13:19:50.301Z,969.83
2023-01-15T13:25:22.531Z,969.84
2023-01-15T13:31:00.207Z,969.89
2023-01-15T13:36:31.897Z,970.04
2023-01-15T13:42:03.574Z,970.76
2023-01-15T13:47:35.288Z,970.59
2023-01-15T13:53:07.092Z,971.18
2023-01-15T13:58:38.998Z,971.43
2023-01-15T14:04:10.740Z,971.54
2023-01-15T14:09:42.340Z,971.07
2023-01-15T14:15:14.099Z,971.22
2023-01-15T14:20:45.850Z,971.52
2023-01-15T14:26:17.623Z,971.05
2023-01-15T14:31:53.935Z,970.76
2023-01-15T14:37:25.585Z,970.7
2023-01-15T14:42:57.190Z,970.56
2023-01-15T14:48:29.030Z,970.64
2023-01-15T14:54:00.831Z,970.82
2023-01-15T14:59:32.562Z,970.48
2023-01-15T15:05:04.245Z,970.64
2023-01-15T15:10:35.973Z,970.5
2023-01-15T15:16:07.993Z,970.48
2023-01-15T15:21:39.427Z,970.52
2023-01-15T15:27:11.050Z,970.39
2023-01-15T15:32:47.097Z,970.51
2023-01-15T15:38:18.912Z,970.16
2023-01-15T15:43:50.810Z,969.99
2023-01-15T15:49:22.509Z,969.72
2023-01-15T15:54:54.127Z,969.44
2023-01-15T16:00:25.725Z,969.39
2023-01-15T16:05:57.557Z,969.5
2023-01-15T16:11:29.307Z,969.41
2023-01-15T16:17:01.084Z,969.74
2023-01-15T16:22:32.824Z,969.44
2023-01-15T16:28:04.591Z,969.15
2023-01-15T16:33:40.860Z,969.54
2023-01-15T16:39:12.352Z,969.12
2023-01-15T16:44:44.261Z,969.11
2023-01-15T16:50:15.917Z,968.98
2023-01-15T16:55:47.579Z,969.17
2023-01-15T17:01:19.734Z,968.99
2023-01-15T17:06:51.218Z,968.86
2023-01-15T17:12:22.889Z,969.02
2023-01-15T17:17:54.587Z,968.68
2023-01-15T17:23:26.477Z,967.93
2023-01-15T17:28:57.957Z,968.39
2023-01-15T17:34:35.984Z,967.98
2023-01-15T17:40:07.897Z,967.93
2023-01-15T17:45:39.528Z,967.49
2023-01-15T17:51:11.318Z,967.46
2023-01-15T17:56:43.148Z,967.87
2023-01-15T18:02:14.944Z,967.53
2023-01-15T18:07:46.391Z,967.37
2023-01-15T18:13:18.147Z,967.44
2023-01-15T18:18:49.897Z,967.38
2023-01-15T18:24:21.642Z,967.11
2023-01-15T18:29:53.771Z,966.95
2023-01-15T18:35:29.675Z,966.9
2023-01-15T18:41:01.383Z,966.6
2023-01-15T18:46:32.980Z,966.8
2023-01-15T18:52:04.996Z,966.76
2023-01-15T18:57:36.448Z,967.18
2023-01-15T19:03:08.197Z,967.26
2023-01-15T19:08:39.984Z,967.34
2023-01-15T19:14:11.741Z,967.1
2023-01-15T19:19:43.398Z,966.97
2023-01-15T19:25:15.575Z,966.39
2023-01-15T19:30:46.793Z,966.55
2023-01-15T19:36:22.872Z,966.56
2023-01-15T19:41:55.471Z,966.33
2023-01-15T19:47:26.604Z,966.37
2023-01-15T19:52:58.225Z,966.48
2023-01-15T19:58:29.898Z,966.26
2023-01-15T20:04:01.729Z,966.64
2023-01-15T20:09:33.256Z,966.19
2023-01-15T20:15:04.981Z,965.98
2023-01-15T20:20:37.201Z,965.7
2023-01-15T20:26:08.483Z,965.43
2023-01-15T20:31:41.348Z,965.54
2023-01-15T20:37:17.858Z,965.55
2023-01-15T20:42:49.365Z,965.44
2023-01-15T20:48:20.670Z,965.31
2023-01-15T20:53:52.391Z,965.2
2023-01-15T20:59:24.533Z,965.33
2023-01-15T21:04:55.991Z,965.02
2023-01-15T21:10:27.540Z,965.37
2023-01-15T21:15:59.327Z,964.74
2023-01-15T21:21:31.670Z,964.98
2023-01-15T21:27:02.956Z,964.71
2023-01-15T21:32:34.675Z,964.77
2023-01-15T21:38:10.932Z,965.0
2023-01-15T21:43:42.838Z,964.99
2023-01-15T21:49:14.245Z,965.5
2023-01-15T21:54:45.926Z,964.97
2023-01-15T22:00:17.721Z,965.0
2023-01-15T22:05:49.433Z,965.01
2023-01-15T22:11:21.233Z,964.73
2023-01-15T22:16:53.122Z,964.74
2023-01-15T22:22:25.456Z,964.56
2023-01-15T22:27:57.204Z,964.73
2023-01-15T22:33:28.937Z,964.53
2023-01-15T22:39:04.878Z,962.96
2023-01-15T22:44:36.731Z,962.83
2023-01-15T22:50:08.501Z,962.41
2023-01-15T22:55:40.111Z,962.26
2023-01-15T23:01:12.010Z,962.21
2023-01-15T23:06:43.612Z,962.39
2023-01-15T23:12:15.187Z,962.29
2023-01-15T23:17:46.945Z,962.1
2023-01-15T23:23:18.628Z,962.15
2023-01-15T23:28:50.421Z,962.18
2023-01-15T23:34:22.044Z,962.36
2023-01-15T23:39:58.299Z,962.34
2023-01-15T23:45:30.211Z,962.43
2023-01-15T23:51:01.888Z,962.51
2023-01-15T23:56:33.589Z,962.14
